Terminal Aerodrome Forecast
Issued by NWS Sterling, VA

Home | Current Version | Previous Version | Text Only | Print | Product List | Glossary On
Versions: 1 2 3 4 5 6 7 8 9 10 11 12 13 14 15 16 17 18 19 20 21 22 23 24 25
000
FTUS41 KLWX 252334
TAFBWI
TAF
KBWI 252334Z 2600/2706 20004KT P6SM FEW250
     FM260800 VRB04KT P6SM FEW200
     FM261600 19006KT P6SM SCT140
     FM261900 18008KT P6SM BKN110
     FM270500 19004KT P6SM BKN060=

USA.gov is the U.S. government's official web portal to all federal, state and local government web resources and services.